This is the latest recevied weather packets stored in our database for station/object KO4DYK. If no packets are shown the sender has not sent any weather packets the latest 10 day(s).
| Time | Temp. | Humidity | Pressure | Rain* | Wind** | Luminosity | Snow |
|---|---|---|---|---|---|---|---|
| 1777838595 | 22.78° C | 38% | 1022.7 hPa | 0 mm | - | 681 W/m² | - |
| 1777838293 | 23.33° C | 37% | 1022.9 hPa | 0 mm | - | 639 W/m² | - |
| 1777837989 | 23.33° C | 37% | 1023 hPa | 0 mm | - | 632 W/m² | - |
| 1777837687 | 22.78° C | 40% | 1023.1 hPa | 0 mm | - | 670 W/m² | - |
| 1777837382 | 22.22° C | 40% | 1023 hPa | 0 mm | - | 678 W/m² | - |
| 1777837078 | 22.22° C | 37% | 1023.1 hPa | 0 mm | - | 686 W/m² | - |
| 1777836775 | 23.89° C | 35% | 1023.2 hPa | 0 mm | - | 695 W/m² | - |
| 1777836470 | 23.33° C | 35% | 1023.5 hPa | 0 mm | - | 714 W/m² | - |
| 1777836166 | 23.33° C | 37% | 1023.6 hPa | 0 mm | - | 742 W/m² | - |
| 1777835863 | 23.89° C | 37% | 1023.6 hPa | 0 mm | - | 746 W/m² | - |
| 1777835560 | 23.33° C | 36% | 1023.8 hPa | 0 mm | - | 741 W/m² | - |
| 1777835257 | 22.22° C | 38% | 1023.9 hPa | 0 mm | - | 761 W/m² | - |
| 1777834954 | 23.33° C | 36% | 1024.1 hPa | 0 mm | - | 739 W/m² | - |
| 1777834651 | 22.78° C | 39% | 1024.1 hPa | 0 mm | - | 731 W/m² | - |
| 1777834346 | 22.22° C | 39% | 1024.2 hPa | 0 mm | - | 721 W/m² | - |
| 1777834041 | 22.22° C | 39% | 1024 hPa | 0 mm | - | 736 W/m² | - |
| 1777833738 | 23.33° C | 36% | 1024.2 hPa | 0 mm | - | 714 W/m² | - |
| 1777833434 | 22.78° C | 37% | 1024.2 hPa | 0 mm | - | 706 W/m² | - |
| 1777833131 | 22.22° C | 40% | 1024.3 hPa | 0 mm | - | 717 W/m² | - |
| 1777832829 | 22.22° C | 41% | 1024.5 hPa | 0 mm | - | 731 W/m² | - |
| 1777832528 | 21.67° C | 40% | 1024.5 hPa | 0 mm | - | 647 W/m² | - |
| 1777832223 | 22.22° C | 40% | 1024.6 hPa | 0 mm | - | 604 W/m² | - |
| 1777831921 | 22.22° C | 41% | 1024.8 hPa | 0 mm | - | 694 W/m² | - |
| 1777831617 | 22.78° C | 39% | 1024.8 hPa | 0 mm | - | 729 W/m² | - |
| 1777831316 | 23.33° C | 38% | 1024.8 hPa | 0 mm | - | 694 W/m² | - |
* Rain latest hour (hover to see other rain measurements)
** Current wind speed in m/s (hover to see current wind gust speed)